createdAt,value
2019-03-27T00:00:09.340Z,1025.06
2019-03-27T00:00:35.450Z,1025.06
2019-03-27T00:01:01.559Z,1025.08
2019-03-27T00:01:27.664Z,1025.05
2019-03-27T00:01:53.800Z,1025.08
2019-03-27T00:02:19.910Z,1025.06
2019-03-27T00:02:46.046Z,1025.05
2019-03-27T00:03:12.183Z,1025.05
2019-03-27T00:03:38.286Z,1025.04
2019-03-27T00:04:04.395Z,1025.03
2019-03-27T00:04:30.534Z,1025.01
2019-03-27T00:04:56.709Z,1025.02
2019-03-27T00:05:22.844Z,1025.05
2019-03-27T00:05:48.949Z,1025.03
2019-03-27T00:06:15.062Z,1025.02
2019-03-27T00:06:41.168Z,1025.04
2019-03-27T00:07:07.305Z,1025.05
2019-03-27T00:07:33.441Z,1025.07
2019-03-27T00:07:59.604Z,1025.05
2019-03-27T00:08:25.735Z,1025.05
2019-03-27T00:08:51.840Z,1025.07
2019-03-27T00:09:17.947Z,1025.07
2019-03-27T00:09:44.057Z,1025.06
2019-03-27T00:10:10.164Z,1025.02
2019-03-27T00:10:36.402Z,1025.05
2019-03-27T00:11:02.502Z,1025.05
2019-03-27T00:11:29.599Z,1025.05
2019-03-27T00:11:55.707Z,1025.07
2019-03-27T00:12:21.813Z,1025.05
2019-03-27T00:12:47.923Z,1025.03
2019-03-27T00:13:14.056Z,1025.02
2019-03-27T00:13:40.164Z,1025.06
2019-03-27T00:14:06.298Z,1025.05
2019-03-27T00:14:32.408Z,1025.06
2019-03-27T00:15:11.461Z,1025.04
2019-03-27T00:15:26.620Z,1025.03
2019-03-27T00:15:52.732Z,1025.08
2019-03-27T00:16:18.895Z,1025.07
2019-03-27T00:16:44.963Z,1025.1
2019-03-27T00:17:11.078Z,1025.03
2019-03-27T00:17:37.185Z,1025.05
2019-03-27T00:18:03.297Z,1025.04
2019-03-27T00:18:29.403Z,1025.02
2019-03-27T00:18:55.538Z,1025.03
2019-03-27T00:19:21.639Z,1024.99
2019-03-27T00:19:47.748Z,1025
2019-03-27T00:20:13.855Z,1025
2019-03-27T00:20:39.960Z,1025.01
2019-03-27T00:21:06.066Z,1024.99
2019-03-27T00:21:32.178Z,1024.97
2019-03-27T00:21:58.288Z,1024.97
2019-03-27T00:22:24.397Z,1024.94
2019-03-27T00:22:50.499Z,1024.96
2019-03-27T00:23:16.611Z,1024.98
2019-03-27T00:23:42.752Z,1024.99
2019-03-27T00:24:08.859Z,1024.96
2019-03-27T00:24:35.030Z,1024.98
2019-03-27T00:25:01.133Z,1024.96
2019-03-27T00:25:27.239Z,1024.97
2019-03-27T00:25:53.375Z,1024.92
2019-03-27T00:26:19.486Z,1024.92
2019-03-27T00:26:45.593Z,1024.95
2019-03-27T00:27:11.753Z,1024.99
2019-03-27T00:27:37.861Z,1024.96
2019-03-27T00:28:03.977Z,1024.95
2019-03-27T00:28:30.080Z,1024.98
2019-03-27T00:28:56.195Z,1024.97
2019-03-27T00:29:22.301Z,1024.97
2019-03-27T00:29:48.408Z,1024.97
2019-03-27T00:30:14.516Z,1024.99
2019-03-27T00:30:40.626Z,1024.98
2019-03-27T00:31:06.729Z,1024.95
2019-03-27T00:31:32.861Z,1024.95
2019-03-27T00:31:58.967Z,1024.96
2019-03-27T00:32:25.081Z,1024.97
2019-03-27T00:32:51.191Z,1024.97
2019-03-27T00:33:17.321Z,1024.98
2019-03-27T00:33:43.427Z,1024.96
2019-03-27T00:34:09.534Z,1024.91
2019-03-27T00:34:35.671Z,1024.9
2019-03-27T00:35:01.783Z,1024.89
2019-03-27T00:35:27.885Z,1024.89
2019-03-27T00:35:54.020Z,1024.91
2019-03-27T00:36:20.127Z,1024.9
2019-03-27T00:36:46.230Z,1024.93
2019-03-27T00:37:12.339Z,1024.94
2019-03-27T00:37:38.478Z,1024.93
2019-03-27T00:38:04.583Z,1024.91
2019-03-27T00:38:30.712Z,1024.87
2019-03-27T00:38:56.844Z,1024.9
2019-03-27T00:39:22.937Z,1024.93
2019-03-27T00:39:49.044Z,1024.93
2019-03-27T00:40:15.146Z,1024.93
2019-03-27T00:40:41.258Z,1024.94
2019-03-27T00:41:07.365Z,1024.9
2019-03-27T00:41:33.468Z,1024.91
2019-03-27T00:41:59.578Z,1024.89
2019-03-27T00:42:25.689Z,1024.91
2019-03-27T00:42:51.801Z,1024.92
2019-03-27T00:43:17.965Z,1024.91
2019-03-27T00:43:44.073Z,1024.95
2019-03-27T00:44:10.179Z,1024.93
2019-03-27T00:44:36.291Z,1024.9
2019-03-27T00:45:02.395Z,1024.9
2019-03-27T00:45:30.514Z,1024.88
2019-03-27T00:45:56.621Z,1024.91
2019-03-27T00:46:22.735Z,1024.84
2019-03-27T00:46:48.903Z,1024.87
2019-03-27T00:47:15.019Z,1024.82
2019-03-27T00:47:41.155Z,1024.86
2019-03-27T00:48:07.261Z,1024.88
2019-03-27T00:48:33.371Z,1024.86
2019-03-27T00:48:59.474Z,1024.86
2019-03-27T00:49:25.577Z,1024.85
2019-03-27T00:49:51.686Z,1024.86
2019-03-27T00:50:17.789Z,1024.83
2019-03-27T00:50:43.910Z,1024.87
2019-03-27T00:51:10.020Z,1024.88
2019-03-27T00:51:36.132Z,1024.9
2019-03-27T00:52:02.239Z,1024.92
2019-03-27T00:52:28.348Z,1024.93
2019-03-27T00:52:54.457Z,1024.96
2019-03-27T00:53:20.561Z,1024.95
2019-03-27T00:53:46.665Z,1024.92
2019-03-27T00:54:12.773Z,1024.94
2019-03-27T00:54:38.882Z,1024.95
2019-03-27T00:55:05.061Z,1024.98
2019-03-27T00:55:31.191Z,1024.99
2019-03-27T00:55:57.303Z,1024.97
2019-03-27T00:56:23.409Z,1024.97
2019-03-27T00:56:49.512Z,1024.96
2019-03-27T00:57:15.622Z,1024.94
2019-03-27T00:57:41.733Z,1024.97
2019-03-27T00:58:07.836Z,1024.94
2019-03-27T00:58:33.937Z,1024.95
2019-03-27T00:59:00.043Z,1024.92
2019-03-27T00:59:26.156Z,1024.97
2019-03-27T00:59:52.263Z,1024.94
2019-03-27T01:00:18.373Z,1024.9
2019-03-27T01:00:44.481Z,1024.99
2019-03-27T01:01:10.641Z,1024.95
2019-03-27T01:01:36.782Z,1024.93
2019-03-27T01:02:02.889Z,1024.92
2019-03-27T01:02:29.000Z,1024.95
2019-03-27T01:02:55.108Z,1024.93
2019-03-27T01:03:21.215Z,1024.94
2019-03-27T01:03:47.348Z,1024.92
2019-03-27T01:04:13.498Z,1024.97
2019-03-27T01:04:39.600Z,1024.98
2019-03-27T01:05:05.713Z,1024.99
2019-03-27T01:05:31.819Z,1024.99
2019-03-27T01:05:57.934Z,1024.99
2019-03-27T01:06:24.045Z,1025.03
2019-03-27T01:06:51.042Z,1025
2019-03-27T01:07:17.223Z,1025.04
2019-03-27T01:07:43.331Z,1025.04
2019-03-27T01:08:09.442Z,1025.02
2019-03-27T01:08:35.551Z,1025.04
2019-03-27T01:09:01.656Z,1025.05
2019-03-27T01:09:27.757Z,1025.03
2019-03-27T01:09:53.898Z,1024.99
2019-03-27T01:10:20.005Z,1025
2019-03-27T01:10:46.144Z,1024.99
2019-03-27T01:11:12.246Z,1024.99
2019-03-27T01:11:38.393Z,1025.01
2019-03-27T01:12:04.502Z,1025
2019-03-27T01:12:30.657Z,1025.02
2019-03-27T01:12:56.763Z,1025.02
2019-03-27T01:13:22.871Z,1025.03
2019-03-27T01:13:48.971Z,1025.01
2019-03-27T01:14:15.078Z,1024.97
2019-03-27T01:14:41.185Z,1025.02
2019-03-27T01:15:07.297Z,1024.99
2019-03-27T01:15:39.886Z,1025.02
2019-03-27T01:16:01.495Z,1025.06
2019-03-27T01:16:27.598Z,1025.06
2019-03-27T01:16:53.715Z,1025.06
2019-03-27T01:17:19.811Z,1025.08
2019-03-27T01:17:45.920Z,1025.1
2019-03-27T01:18:12.057Z,1025.07
2019-03-27T01:18:38.159Z,1025.09
2019-03-27T01:19:04.270Z,1025.08
2019-03-27T01:19:30.410Z,1025.11
2019-03-27T01:19:56.518Z,1025.11
2019-03-27T01:20:22.624Z,1025.1
2019-03-27T01:20:48.732Z,1025.06
2019-03-27T01:21:14.840Z,1025.06
2019-03-27T01:21:40.948Z,1025.09
2019-03-27T01:22:07.146Z,1025.05
2019-03-27T01:22:33.200Z,1025.1
2019-03-27T01:22:59.374Z,1025.08
2019-03-27T01:23:25.431Z,1025.08
2019-03-27T01:23:51.545Z,1025.1
2019-03-27T01:24:17.684Z,1025.06
2019-03-27T01:24:43.820Z,1025.09
2019-03-27T01:25:09.928Z,1025.06
2019-03-27T01:25:36.057Z,1025.05
2019-03-27T01:26:02.199Z,1025.05
2019-03-27T01:26:28.321Z,1025.07
2019-03-27T01:26:54.428Z,1025.06
2019-03-27T01:27:20.534Z,1025.02
2019-03-27T01:27:46.649Z,1025.05
2019-03-27T01:28:12.752Z,1025.08
2019-03-27T01:28:38.863Z,1025.04
2019-03-27T01:29:04.975Z,1025.04
2019-03-27T01:29:31.113Z,1025.01
2019-03-27T01:29:57.247Z,1025.04
2019-03-27T01:30:23.408Z,1025.05
2019-03-27T01:30:49.519Z,1025
2019-03-27T01:31:15.623Z,1025.05
2019-03-27T01:31:41.730Z,1025.04
2019-03-27T01:32:07.833Z,1025.05
2019-03-27T01:32:33.971Z,1025.01
2019-03-27T01:33:00.086Z,1025.03
2019-03-27T01:33:26.191Z,1025.03
2019-03-27T01:33:52.298Z,1025.02
2019-03-27T01:34:18.429Z,1025.1
2019-03-27T01:34:44.543Z,1025.03
2019-03-27T01:35:10.793Z,1025.04
2019-03-27T01:35:36.921Z,1025.05
2019-03-27T01:36:03.027Z,1025.04
2019-03-27T01:36:29.139Z,1025.03
2019-03-27T01:36:55.272Z,1025.04
2019-03-27T01:37:21.388Z,1025.03
2019-03-27T01:37:47.492Z,1025.07
2019-03-27T01:38:13.605Z,1025.03
2019-03-27T01:38:39.707Z,1025.02
2019-03-27T01:39:05.815Z,1025.02
2019-03-27T01:39:31.924Z,1025.01
2019-03-27T01:39:58.059Z,1025.05
2019-03-27T01:40:24.200Z,1025.02
2019-03-27T01:40:50.313Z,1025.01
2019-03-27T01:41:16.423Z,1024.99
2019-03-27T01:41:42.532Z,1024.97
2019-03-27T01:42:08.642Z,1025
2019-03-27T01:42:34.749Z,1024.95
2019-03-27T01:43:00.859Z,1024.92
2019-03-27T01:43:26.967Z,1024.97
2019-03-27T01:43:53.074Z,1024.92
2019-03-27T01:44:19.178Z,1024.93
2019-03-27T01:44:45.287Z,1024.89
2019-03-27T01:45:11.393Z,1024.91
2019-03-27T01:45:37.503Z,1024.88
2019-03-27T01:46:04.626Z,1024.86
2019-03-27T01:46:30.728Z,1024.86
2019-03-27T01:46:56.869Z,1024.87
2019-03-27T01:47:22.975Z,1024.89
2019-03-27T01:47:49.096Z,1024.87
2019-03-27T01:48:15.226Z,1024.87
2019-03-27T01:48:41.334Z,1024.89
2019-03-27T01:49:07.439Z,1024.89
2019-03-27T01:49:33.551Z,1024.92
2019-03-27T01:49:59.660Z,1024.93
2019-03-27T01:50:25.796Z,1024.9
2019-03-27T01:50:51.899Z,1024.91
2019-03-27T01:51:18.002Z,1024.92
2019-03-27T01:51:44.111Z,1024.91
2019-03-27T01:52:11.216Z,1024.9
2019-03-27T01:52:37.324Z,1024.91
2019-03-27T01:53:03.428Z,1024.9
2019-03-27T01:53:29.559Z,1024.92
2019-03-27T01:53:55.692Z,1024.9
2019-03-27T01:54:21.804Z,1024.89
2019-03-27T01:54:47.931Z,1024.94
2019-03-27T01:55:14.042Z,1024.89
2019-03-27T01:55:40.145Z,1024.9
2019-03-27T01:56:06.282Z,1024.9
2019-03-27T01:56:32.389Z,1024.91
2019-03-27T01:56:58.488Z,1024.88
2019-03-27T01:57:24.601Z,1024.87
2019-03-27T01:57:50.706Z,1024.87
2019-03-27T01:58:16.817Z,1024.89
2019-03-27T01:58:42.924Z,1024.87
2019-03-27T01:59:09.029Z,1024.9
2019-03-27T01:59:35.189Z,1024.84
2019-03-27T02:00:01.246Z,1024.87
2019-03-27T02:00:27.351Z,1024.85
2019-03-27T02:00:53.462Z,1024.88
2019-03-27T02:01:19.562Z,1024.91
2019-03-27T02:01:45.682Z,1024.88
2019-03-27T02:02:11.823Z,1024.86
2019-03-27T02:02:37.927Z,1024.89
2019-03-27T02:03:04.032Z,1024.82
2019-03-27T02:03:30.138Z,1024.87
2019-03-27T02:03:56.250Z,1024.84
2019-03-27T02:04:22.357Z,1024.83
2019-03-27T02:04:48.457Z,1024.85
2019-03-27T02:05:14.557Z,1024.8
2019-03-27T02:05:40.687Z,1024.81
2019-03-27T02:06:06.848Z,1024.82
2019-03-27T02:06:32.957Z,1024.83
2019-03-27T02:06:59.061Z,1024.82
2019-03-27T02:07:25.204Z,1024.81
2019-03-27T02:07:51.337Z,1024.84
2019-03-27T02:08:17.445Z,1024.81
2019-03-27T02:08:43.549Z,1024.85
2019-03-27T02:09:09.686Z,1024.85
2019-03-27T02:09:35.778Z,1024.83
2019-03-27T02:10:01.894Z,1024.87
2019-03-27T02:10:27.996Z,1024.85
2019-03-27T02:10:54.104Z,1024.83
2019-03-27T02:11:20.210Z,1024.86
2019-03-27T02:11:46.319Z,1024.91
2019-03-27T02:12:12.456Z,1024.87
2019-03-27T02:12:38.563Z,1024.88
2019-03-27T02:13:04.671Z,1024.9
2019-03-27T02:13:30.781Z,1024.89
2019-03-27T02:13:56.958Z,1024.91
2019-03-27T02:14:23.017Z,1024.89
2019-03-27T02:14:49.114Z,1024.88
2019-03-27T02:15:15.250Z,1024.88
2019-03-27T02:15:41.389Z,1024.91
2019-03-27T02:16:08.503Z,1024.9
2019-03-27T02:16:34.617Z,1024.93
2019-03-27T02:17:00.789Z,1024.89
2019-03-27T02:17:26.896Z,1024.87
2019-03-27T02:17:53.030Z,1024.9
2019-03-27T02:18:19.152Z,1024.88
2019-03-27T02:18:45.254Z,1024.85
2019-03-27T02:19:11.365Z,1024.86
2019-03-27T02:19:37.468Z,1024.86
2019-03-27T02:20:03.613Z,1024.89
2019-03-27T02:20:29.716Z,1024.83
2019-03-27T02:20:55.820Z,1024.87
2019-03-27T02:21:21.960Z,1024.85
2019-03-27T02:21:48.068Z,1024.84
2019-03-27T02:22:14.201Z,1024.83
2019-03-27T02:22:40.306Z,1024.85
2019-03-27T02:23:06.417Z,1024.84
2019-03-27T02:23:32.528Z,1024.85
2019-03-27T02:23:58.641Z,1024.87
2019-03-27T02:24:24.797Z,1024.85
2019-03-27T02:24:50.967Z,1024.83
2019-03-27T02:25:17.103Z,1024.83
2019-03-27T02:25:43.204Z,1024.82
2019-03-27T02:26:09.340Z,1024.87
2019-03-27T02:26:35.454Z,1024.83
2019-03-27T02:27:01.562Z,1024.85
2019-03-27T02:27:27.697Z,1024.84
2019-03-27T02:27:53.803Z,1024.81
2019-03-27T02:28:19.909Z,1024.84
2019-03-27T02:28:46.015Z,1024.82
2019-03-27T02:29:12.134Z,1024.82
2019-03-27T02:29:38.232Z,1024.81
2019-03-27T02:30:04.346Z,1024.86
2019-03-27T02:30:30.497Z,1024.85
2019-03-27T02:30:56.700Z,1024.85
2019-03-27T02:31:22.861Z,1024.84
2019-03-27T02:31:48.964Z,1024.8
2019-03-27T02:32:15.131Z,1024.85
2019-03-27T02:32:42.010Z,1024.86
2019-03-27T02:33:08.155Z,1024.83
2019-03-27T02:33:34.288Z,1024.83
2019-03-27T02:34:00.428Z,1024.83
2019-03-27T02:34:26.559Z,1024.83
2019-03-27T02:34:52.739Z,1024.86
2019-03-27T02:35:18.914Z,1024.84
2019-03-27T02:35:45.074Z,1024.85
2019-03-27T02:36:11.189Z,1024.82
2019-03-27T02:36:37.346Z,1024.86
2019-03-27T02:37:03.473Z,1024.83
2019-03-27T02:37:29.594Z,1024.81
2019-03-27T02:37:55.726Z,1024.81
2019-03-27T02:38:21.900Z,1024.82
2019-03-27T02:38:48.069Z,1024.82
2019-03-27T02:39:14.173Z,1024.84
2019-03-27T02:39:40.275Z,1024.83
2019-03-27T02:40:06.433Z,1024.82
2019-03-27T02:40:32.603Z,1024.83
2019-03-27T02:40:58.735Z,1024.83
2019-03-27T02:41:24.870Z,1024.85
2019-03-27T02:41:51.004Z,1024.82
2019-03-27T02:42:17.145Z,1024.82
2019-03-27T02:42:43.270Z,1024.86
2019-03-27T02:43:09.412Z,1024.86
2019-03-27T02:43:35.520Z,1024.84
2019-03-27T02:44:01.676Z,1024.87
2019-03-27T02:44:27.814Z,1024.86
2019-03-27T02:44:53.924Z,1024.88
2019-03-27T02:45:20.071Z,1024.89
2019-03-27T02:45:46.158Z,1024.9
2019-03-27T02:46:24.173Z,1024.93
2019-03-27T02:46:39.529Z,1024.94
2019-03-27T02:47:05.665Z,1024.92
2019-03-27T02:47:31.823Z,1024.95
2019-03-27T02:47:57.942Z,1024.97
2019-03-27T02:48:24.663Z,1024.96
2019-03-27T02:48:50.773Z,1024.98
2019-03-27T02:49:16.939Z,1024.97
2019-03-27T02:49:43.047Z,1024.98
2019-03-27T02:50:09.183Z,1025.01
2019-03-27T02:50:35.403Z,1025
2019-03-27T02:51:01.539Z,1025.02
2019-03-27T02:51:27.721Z,1025.02
2019-03-27T02:51:53.862Z,1025.07
2019-03-27T02:52:19.967Z,1025.05
2019-03-27T02:52:46.073Z,1025.04
2019-03-27T02:53:12.178Z,1025.03
2019-03-27T02:53:38.285Z,1025.02
2019-03-27T02:54:04.425Z,1025.05
2019-03-27T02:54:30.557Z,1025.05
2019-03-27T02:54:56.701Z,1025.04
2019-03-27T02:55:22.823Z,1025.07
2019-03-27T02:55:48.928Z,1025.06
2019-03-27T02:56:15.037Z,1025.06
2019-03-27T02:56:41.214Z,1025.01
2019-03-27T02:57:07.349Z,1025.02
2019-03-27T02:57:33.498Z,1025.01
2019-03-27T02:57:59.641Z,1025.02
2019-03-27T02:58:25.748Z,1025.05
2019-03-27T02:58:51.881Z,1025.03
2019-03-27T02:59:18.081Z,1025.01
2019-03-27T02:59:44.215Z,1025
2019-03-27T03:00:10.353Z,1025.01
2019-03-27T03:00:36.491Z,1025.01
2019-03-27T03:01:02.623Z,1024.98
2019-03-27T03:01:28.763Z,1025
2019-03-27T03:01:54.888Z,1025.02
2019-03-27T03:02:21.060Z,1025.02
2019-03-27T03:02:47.191Z,1024.99
2019-03-27T03:03:13.332Z,1024.95
2019-03-27T03:03:39.420Z,1024.97
2019-03-27T03:04:05.648Z,1024.95
2019-03-27T03:04:31.810Z,1024.95
2019-03-27T03:04:57.921Z,1024.95
2019-03-27T03:05:24.051Z,1024.98
2019-03-27T03:05:50.164Z,1024.96
2019-03-27T03:06:16.348Z,1024.93
2019-03-27T03:06:42.480Z,1024.95
2019-03-27T03:07:08.620Z,1024.93
2019-03-27T03:07:34.815Z,1024.92
2019-03-27T03:08:00.975Z,1024.92
2019-03-27T03:08:27.146Z,1024.87
2019-03-27T03:08:53.303Z,1024.91
2019-03-27T03:09:19.536Z,1024.91
2019-03-27T03:09:45.668Z,1024.92
2019-03-27T03:10:11.882Z,1024.94
2019-03-27T03:10:38.034Z,1024.94
2019-03-27T03:11:05.156Z,1024.91
2019-03-27T03:11:31.322Z,1024.91
2019-03-27T03:11:57.514Z,1024.95
2019-03-27T03:12:23.636Z,1024.91
2019-03-27T03:12:49.853Z,1024.95
2019-03-27T03:13:15.995Z,1024.91
2019-03-27T03:13:42.160Z,1024.96
2019-03-27T03:14:08.299Z,1024.92
2019-03-27T03:14:34.429Z,1024.92
2019-03-27T03:15:00.601Z,1024.92
2019-03-27T03:15:26.772Z,1024.93
2019-03-27T03:15:52.871Z,1024.95
2019-03-27T03:16:18.994Z,1024.94
2019-03-27T03:16:48.110Z,1024.94
2019-03-27T03:17:14.205Z,1024.98
2019-03-27T03:17:40.345Z,1024.95
2019-03-27T03:18:06.451Z,1024.94
2019-03-27T03:18:32.594Z,1024.94
2019-03-27T03:18:58.731Z,1024.96
2019-03-27T03:19:24.903Z,1024.95
2019-03-27T03:19:51.058Z,1024.99
2019-03-27T03:20:17.202Z,1024.95
2019-03-27T03:20:43.336Z,1024.96
2019-03-27T03:21:09.468Z,1024.97
2019-03-27T03:21:35.579Z,1024.97
2019-03-27T03:22:01.712Z,1025.01
2019-03-27T03:22:27.878Z,1024.98
2019-03-27T03:22:53.983Z,1024.98
2019-03-27T03:23:20.126Z,1025.02
2019-03-27T03:23:46.227Z,1025.05
2019-03-27T03:24:12.363Z,1024.99
2019-03-27T03:24:38.520Z,1025
2019-03-27T03:25:04.687Z,1025.01
2019-03-27T03:25:30.806Z,1025.05
2019-03-27T03:25:56.931Z,1025.08
2019-03-27T03:26:23.039Z,1025.09
2019-03-27T03:26:51.087Z,1025.11
2019-03-27T03:27:16.300Z,1025.09
2019-03-27T03:27:42.497Z,1025.09
2019-03-27T03:28:08.605Z,1025.08
2019-03-27T03:28:34.774Z,1025.05
2019-03-27T03:29:00.902Z,1025.09
2019-03-27T03:29:27.061Z,1025.12
2019-03-27T03:29:53.197Z,1025.12
2019-03-27T03:30:19.351Z,1025.11
2019-03-27T03:30:45.511Z,1025.09
2019-03-27T03:31:11.642Z,1025.09
2019-03-27T03:31:37.822Z,1025.09
2019-03-27T03:32:03.950Z,1025.08
2019-03-27T03:32:30.055Z,1025.05
2019-03-27T03:32:56.325Z,1025.09
2019-03-27T03:33:22.470Z,1025.11
2019-03-27T03:33:48.604Z,1025.06
2019-03-27T03:34:14.751Z,1025.07
2019-03-27T03:34:40.907Z,1025.1
2019-03-27T03:35:07.073Z,1025.07
2019-03-27T03:35:33.235Z,1025.09
2019-03-27T03:35:59.404Z,1025.09
2019-03-27T03:36:25.510Z,1025.08
2019-03-27T03:36:51.616Z,1025.1
2019-03-27T03:37:17.723Z,1025.05
2019-03-27T03:37:43.833Z,1025.05
2019-03-27T03:38:09.965Z,1025.04
2019-03-27T03:38:36.158Z,1025.1
2019-03-27T03:39:02.366Z,1025.07
2019-03-27T03:39:28.488Z,1025.07
2019-03-27T03:39:54.618Z,1025.09
2019-03-27T03:40:20.794Z,1025.09
2019-03-27T03:40:46.950Z,1025.11
2019-03-27T03:41:13.121Z,1025.14
2019-03-27T03:41:39.246Z,1025.08
2019-03-27T03:42:05.374Z,1025.14
2019-03-27T03:42:31.479Z,1025.16
2019-03-27T03:42:57.688Z,1025.16
2019-03-27T03:43:23.824Z,1025.18
2019-03-27T03:43:49.928Z,1025.23
2019-03-27T03:44:16.094Z,1025.21
2019-03-27T03:44:42.227Z,1025.17
2019-03-27T03:45:08.332Z,1025.2
2019-03-27T03:45:34.470Z,1025.19
2019-03-27T03:46:00.667Z,1025.17
2019-03-27T03:46:26.825Z,1025.15
2019-03-27T03:46:59.809Z,1025.19
2019-03-27T03:47:21.654Z,1025.17
2019-03-27T03:47:47.758Z,1025.16
2019-03-27T03:48:13.893Z,1025.17
2019-03-27T03:48:40.091Z,1025.16
2019-03-27T03:49:06.285Z,1025.19
2019-03-27T03:49:32.392Z,1025.2
2019-03-27T03:49:58.504Z,1025.17
2019-03-27T03:50:24.675Z,1025.19
2019-03-27T03:50:50.811Z,1025.21
2019-03-27T03:51:16.983Z,1025.2
2019-03-27T03:51:43.124Z,1025.22
2019-03-27T03:52:09.302Z,1025.24
2019-03-27T03:52:35.400Z,1025.21
2019-03-27T03:53:01.918Z,1025.22
2019-03-27T03:53:28.015Z,1025.26
2019-03-27T03:53:54.176Z,1025.27
2019-03-27T03:54:20.328Z,1025.23
2019-03-27T03:54:46.448Z,1025.25
2019-03-27T03:55:12.624Z,1025.3
2019-03-27T03:55:38.779Z,1025.27
2019-03-27T03:56:04.915Z,1025.28
2019-03-27T03:56:31.049Z,1025.31
2019-03-27T03:56:57.156Z,1025.27
2019-03-27T03:57:23.291Z,1025.26
2019-03-27T03:57:49.433Z,1025.28
2019-03-27T03:58:15.598Z,1025.29
2019-03-27T03:58:41.857Z,1025.3
2019-03-27T03:59:08.777Z,1025.29
2019-03-27T03:59:34.967Z,1025.3
2019-03-27T04:00:01.279Z,1025.29
2019-03-27T04:00:27.480Z,1025.3
2019-03-27T04:00:53.633Z,1025.31
2019-03-27T04:01:19.791Z,1025.32
2019-03-27T04:01:45.962Z,1025.35
2019-03-27T04:02:12.275Z,1025.35
2019-03-27T04:02:38.452Z,1025.32
2019-03-27T04:03:04.715Z,1025.31
2019-03-27T04:03:31.076Z,1025.28
2019-03-27T04:03:57.556Z,1025.31
2019-03-27T04:04:26.932Z,1025.32
2019-03-27T04:04:53.112Z,1025.28
2019-03-27T04:05:19.861Z,1025.3
2019-03-27T04:05:46.453Z,1025.28
2019-03-27T04:06:12.643Z,1025.28
2019-03-27T04:06:38.936Z,1025.29
2019-03-27T04:07:05.535Z,1025.26
2019-03-27T04:07:31.662Z,1025.25
2019-03-27T04:07:58.077Z,1025.28
2019-03-27T04:08:24.439Z,1025.27
2019-03-27T04:08:51.103Z,1025.27
2019-03-27T04:09:17.397Z,1025.25
2019-03-27T04:09:43.602Z,1025.25
2019-03-27T04:10:09.908Z,1025.28
2019-03-27T04:10:36.104Z,1025.28
2019-03-27T04:11:02.730Z,1025.32
2019-03-27T04:11:29.263Z,1025.29
2019-03-27T04:11:55.609Z,1025.27
2019-03-27T04:12:22.079Z,1025.29
2019-03-27T04:12:48.585Z,1025.32
2019-03-27T04:13:14.801Z,1025.31
2019-03-27T04:13:40.914Z,1025.31
2019-03-27T04:14:07.380Z,1025.33
2019-03-27T04:14:33.591Z,1025.29
2019-03-27T04:15:00.435Z,1025.33
2019-03-27T04:15:26.598Z,1025.35
2019-03-27T04:15:52.785Z,1025.33
2019-03-27T04:16:19.048Z,1025.29
2019-03-27T04:16:45.717Z,1025.31
2019-03-27T04:17:17.236Z,1025.31
2019-03-27T04:17:41.149Z,1025.35
2019-03-27T04:18:07.520Z,1025.33
2019-03-27T04:18:33.712Z,1025.31
2019-03-27T04:18:59.879Z,1025.3
2019-03-27T04:19:26.718Z,1025.32
2019-03-27T04:19:53.094Z,1025.33
2019-03-27T04:20:19.517Z,1025.29
2019-03-27T04:20:46.214Z,1025.33
2019-03-27T04:21:12.508Z,1025.32
2019-03-27T04:21:39.770Z,1025.3
2019-03-27T04:22:05.898Z,1025.36
2019-03-27T04:22:32.242Z,1025.34
2019-03-27T04:22:59.160Z,1025.34
2019-03-27T04:23:25.263Z,1025.33
2019-03-27T04:23:51.820Z,1025.34
2019-03-27T04:24:18.148Z,1025.37
2019-03-27T04:24:44.290Z,1025.38
2019-03-27T04:25:11.095Z,1025.38
2019-03-27T04:26:06.877Z,1025.38
2019-03-27T04:26:10.344Z,1025.41
2019-03-27T04:26:36.683Z,1025.39
2019-03-27T04:27:02.819Z,1025.39
2019-03-27T04:27:29.011Z,1025.42
2019-03-27T04:27:55.167Z,1025.4
2019-03-27T04:28:21.307Z,1025.39
2019-03-27T04:28:47.446Z,1025.39
2019-03-27T04:29:13.555Z,1025.42
2019-03-27T04:29:39.713Z,1025.38
2019-03-27T04:30:05.823Z,1025.42
2019-03-27T04:30:31.920Z,1025.42
2019-03-27T04:30:58.033Z,1025.42
2019-03-27T04:31:24.230Z,1025.42
2019-03-27T04:31:50.364Z,1025.43
2019-03-27T04:32:16.475Z,1025.39
2019-03-27T04:32:42.666Z,1025.37
2019-03-27T04:33:08.777Z,1025.39
2019-03-27T04:33:34.972Z,1025.39
2019-03-27T04:34:01.112Z,1025.41
2019-03-27T04:34:27.246Z,1025.37
2019-03-27T04:34:54.346Z,1025.39
2019-03-27T04:35:20.487Z,1025.41
2019-03-27T04:35:46.685Z,1025.4
2019-03-27T04:36:12.822Z,1025.42
2019-03-27T04:36:38.964Z,1025.44
2019-03-27T04:37:05.095Z,1025.4
2019-03-27T04:37:31.234Z,1025.46
2019-03-27T04:37:57.376Z,1025.47
2019-03-27T04:38:23.540Z,1025.44
2019-03-27T04:38:49.670Z,1025.48
2019-03-27T04:39:15.800Z,1025.46
2019-03-27T04:39:41.969Z,1025.48
2019-03-27T04:40:08.072Z,1025.5
2019-03-27T04:40:34.207Z,1025.48
2019-03-27T04:41:00.315Z,1025.49
2019-03-27T04:41:26.433Z,1025.45
2019-03-27T04:41:52.594Z,1025.52
2019-03-27T04:42:18.746Z,1025.52
2019-03-27T04:42:44.882Z,1025.52
2019-03-27T04:43:10.992Z,1025.51
2019-03-27T04:43:37.131Z,1025.5
2019-03-27T04:44:03.230Z,1025.49
2019-03-27T04:44:29.368Z,1025.5
2019-03-27T04:44:55.499Z,1025.49
2019-03-27T04:45:21.640Z,1025.44
2019-03-27T04:45:47.739Z,1025.47
2019-03-27T04:46:13.874Z,1025.44
2019-03-27T04:46:39.985Z,1025.48
2019-03-27T04:47:06.106Z,1025.48
2019-03-27T04:47:33.254Z,1025.51
2019-03-27T04:47:59.358Z,1025.48
2019-03-27T04:48:25.489Z,1025.48
2019-03-27T04:48:51.634Z,1025.51
2019-03-27T04:49:18.307Z,1025.52
2019-03-27T04:49:44.418Z,1025.51
2019-03-27T04:50:10.537Z,1025.59
2019-03-27T04:50:36.679Z,1025.56
2019-03-27T04:51:02.812Z,1025.54
2019-03-27T04:51:28.952Z,1025.57
2019-03-27T04:51:55.056Z,1025.6
2019-03-27T04:52:21.167Z,1025.57
2019-03-27T04:52:47.277Z,1025.59
2019-03-27T04:53:13.380Z,1025.59
2019-03-27T04:53:39.487Z,1025.61
2019-03-27T04:54:05.607Z,1025.65
2019-03-27T04:54:31.722Z,1025.59
2019-03-27T04:54:57.830Z,1025.61
2019-03-27T04:55:23.938Z,1025.62
2019-03-27T04:55:50.047Z,1025.59
2019-03-27T04:56:16.154Z,1025.61
2019-03-27T04:56:42.257Z,1025.63
2019-03-27T04:57:08.366Z,1025.62
2019-03-27T04:57:34.468Z,1025.62
2019-03-27T04:58:00.601Z,1025.61
2019-03-27T04:58:26.716Z,1025.66
2019-03-27T04:58:52.821Z,1025.69
2019-03-27T04:59:18.945Z,1025.66
2019-03-27T04:59:45.054Z,1025.68
2019-03-27T05:00:11.194Z,1025.68
2019-03-27T05:00:37.375Z,1025.7
2019-03-27T05:01:03.460Z,1025.68
2019-03-27T05:01:29.617Z,1025.69
2019-03-27T05:01:55.727Z,1025.66
2019-03-27T05:02:22.453Z,1025.66
2019-03-27T05:02:48.556Z,1025.69
2019-03-27T05:03:14.696Z,1025.69
2019-03-27T05:03:40.808Z,1025.67
2019-03-27T05:04:06.923Z,1025.65
2019-03-27T05:04:33.023Z,1025.65
2019-03-27T05:04:59.128Z,1025.66
2019-03-27T05:05:25.265Z,1025.69
2019-03-27T05:05:51.395Z,1025.68
2019-03-27T05:06:17.508Z,1025.69
2019-03-27T05:06:43.643Z,1025.66
2019-03-27T05:07:09.771Z,1025.66
2019-03-27T05:07:35.879Z,1025.66
2019-03-27T05:08:01.988Z,1025.65
2019-03-27T05:08:28.118Z,1025.7
2019-03-27T05:08:54.225Z,1025.66
2019-03-27T05:09:20.335Z,1025.63
2019-03-27T05:09:46.450Z,1025.62
2019-03-27T05:10:12.556Z,1025.56
2019-03-27T05:10:38.658Z,1025.62
2019-03-27T05:11:04.768Z,1025.59
2019-03-27T05:11:30.877Z,1025.63
2019-03-27T05:11:56.988Z,1025.59
2019-03-27T05:12:23.099Z,1025.59
2019-03-27T05:12:49.486Z,1025.6
2019-03-27T05:13:15.595Z,1025.62
2019-03-27T05:13:41.704Z,1025.63
2019-03-27T05:14:07.811Z,1025.61
2019-03-27T05:14:33.915Z,1025.59
2019-03-27T05:15:00.020Z,1025.57
2019-03-27T05:15:26.150Z,1025.59
2019-03-27T05:15:52.307Z,1025.59
2019-03-27T05:16:18.427Z,1025.6
2019-03-27T05:16:44.542Z,1025.61
2019-03-27T05:17:10.677Z,1025.6
2019-03-27T05:17:45.487Z,1025.57
2019-03-27T05:18:04.925Z,1025.62